Time;durP1;ratioP1;P1;durP2;ratioP2;P2;SDS_P1;SDS_P2;PMS_P1;PMS_P2;Temp;Humidity;BMP_temperature;BMP_pressure;BME280_temperature;BME280_humidity;BME280_pressure;Samples;Min_cycle;Max_cycle;Signal;HPM_P1;HPM_P2
2022/12/07 00:01:26;;;;;;;25.45;18.00;;;9.90;99.90;;;;;;4225711;28;20079;-85
2022/12/07 00:03:47;;;;;;;28.50;17.27;;;9.90;99.90;;;;;;4232942;28;20047;-86
2022/12/07 00:06:11;;;;;;;33.42;19.58;;;9.90;99.90;;;;;;4224708;28;20070;-85
2022/12/07 00:08:32;;;;;;;23.63;19.10;;;9.90;99.90;;;;;;4218400;28;20062;-85
2022/12/07 00:10:52;;;;;;;21.67;16.75;;;9.90;99.90;;;;;;4225777;28;20084;-85
2022/12/07 00:13:13;;;;;;;20.83;16.65;;;9.90;99.90;;;;;;4231549;28;20358;-85
2022/12/07 00:15:34;;;;;;;21.05;16.55;;;9.90;99.90;;;;;;4218622;28;20070;-85
2022/12/07 00:17:54;;;;;;;28.85;16.60;;;9.90;99.90;;;;;;4221789;28;20055;-86
2022/12/07 00:20:14;;;;;;;24.83;18.75;;;9.90;99.90;;;;;;4230174;28;20103;-85
2022/12/07 00:22:33;;;;;;;28.63;17.85;;;9.90;99.90;;;;;;4226241;28;20055;-85
2022/12/07 00:24:53;;;;;;;25.83;19.27;;;9.90;99.90;;;;;;4226171;28;20081;-86
2022/12/07 00:27:13;;;;;;;26.50;18.45;;;10.00;99.90;;;;;;4230412;28;20051;-85
2022/12/07 00:29:34;;;;;;;21.60;18.20;;;9.90;99.90;;;;;;4221456;28;20047;-85
2022/12/07 00:31:53;;;;;;;21.67;17.15;;;9.90;99.90;;;;;;4230029;28;20115;-85
2022/12/07 00:34:19;;;;;;;30.10;16.60;;;9.90;99.90;;;;;;4230639;28;20120;-85
2022/12/07 00:36:40;;;;;;;22.45;16.70;;;9.90;99.90;;;;;;4227327;28;20295;-85
2022/12/07 00:39:00;;;;;;;25.58;17.35;;;9.90;99.90;;;;;;4218909;28;20077;-85
2022/12/07 00:41:23;;;;;;;23.48;17.35;;;9.80;99.90;;;;;;4213608;28;20086;-85
2022/12/07 00:43:44;;;;;;;27.77;17.17;;;9.80;99.90;;;;;;4210592;28;20441;-85
2022/12/07 00:46:05;;;;;;;26.75;18.08;;;9.80;99.90;;;;;;4229902;28;20047;-85
2022/12/07 00:48:25;;;;;;;30.27;18.70;;;9.80;99.90;;;;;;4224427;28;20042;-85
2022/12/07 00:50:45;;;;;;;26.42;17.88;;;9.80;99.90;;;;;;4219532;28;20339;-85
2022/12/07 00:53:05;;;;;;;19.70;17.45;;;9.80;99.90;;;;;;4219416;28;20059;-85
2022/12/07 00:55:25;;;;;;;25.55;18.25;;;9.80;99.90;;;;;;4219042;28;20104;-85
2022/12/07 00:57:45;;;;;;;22.80;17.95;;;9.80;99.90;;;;;;4231630;28;20079;-86
2022/12/07 01:00:05;;;;;;;31.02;19.33;;;9.80;99.90;;;;;;4219592;28;20079;-85
2022/12/07 01:02:25;;;;;;;23.05;18.48;;;9.80;99.90;;;;;;4237461;28;20077;-85
2022/12/07 01:04:45;;;;;;;24.17;17.65;;;9.70;99.90;;;;;;4219553;28;20082;-86
2022/12/07 01:07:04;;;;;;;23.70;17.15;;;9.70;99.90;;;;;;4231948;28;20047;-86
2022/12/07 01:09:24;;;;;;;26.45;17.92;;;9.70;99.90;;;;;;4230120;28;20279;-85
2022/12/07 01:11:44;;;;;;;26.48;17.00;;;9.70;99.90;;;;;;4221243;28;20244;-85
2022/12/07 01:14:04;;;;;;;20.67;15.70;;;9.60;99.90;;;;;;4230434;28;20103;-85
2022/12/07 01:16:26;;;;;;;20.10;16.35;;;9.60;99.90;;;;;;4225930;28;20073;-85
2022/12/07 01:18:48;;;;;;;21.85;16.27;;;9.60;99.90;;;;;;4228695;28;20055;-85
2022/12/07 01:21:15;;;;;;;27.58;19.95;;;9.60;99.90;;;;;;4215999;28;20066;-85
2022/12/07 01:23:35;;;;;;;20.08;16.52;;;9.60;99.90;;;;;;4232757;28;20051;-85
2022/12/07 01:25:57;;;;;;;531.80;50.72;;;9.60;99.90;;;;;;4230624;28;20074;-85
2022/12/07 01:28:17;;;;;;;380.20;40.45;;;9.50;99.90;;;;;;4228772;28;20047;-85
2022/12/07 01:30:37;;;;;;;212.50;38.60;;;9.40;99.90;;;;;;4232283;28;20047;-85
2022/12/07 01:32:56;;;;;;;157.02;53.90;;;9.30;99.90;;;;;;4233084;28;20046;-85
2022/12/07 01:35:16;;;;;;;35.45;25.50;;;9.30;99.90;;;;;;4225546;28;20055;-85
2022/12/07 01:37:38;;;;;;;39.42;28.27;;;9.30;99.90;;;;;;4219211;28;20067;-85
2022/12/07 01:39:58;;;;;;;35.83;22.35;;;9.40;99.90;;;;;;4227673;28;20400;-85
2022/12/07 01:42:18;;;;;;;31.40;20.15;;;9.40;99.90;;;;;;4227398;28;20051;-85
2022/12/07 01:45:16;;;;;;;32.20;20.48;;;9.50;99.90;;;;;;4215776;28;20079;-85
2022/12/07 01:47:36;;;;;;;469.38;51.13;;;9.50;99.90;;;;;;4221713;28;20051;-85
2022/12/07 01:49:56;;;;;;;277.85;39.97;;;9.40;99.90;;;;;;4233407;28;20076;-86
2022/12/07 01:52:18;;;;;;;114.70;37.90;;;9.30;99.90;;;;;;4215590;28;20058;-85
2022/12/07 01:54:38;;;;;;;38.92;29.98;;;9.20;99.90;;;;;;4231593;28;20058;-85
2022/12/07 01:56:59;;;;;;;33.17;26.55;;;9.20;99.90;;;;;;4228933;28;20489;-85
2022/12/07 01:59:21;;;;;;;38.28;26.73;;;9.30;99.90;;;;;;4232950;28;20050;-85
2022/12/07 02:01:41;;;;;;;30.05;25.10;;;9.30;99.90;;;;;;4223707;28;20055;-85
2022/12/07 02:04:01;;;;;;;38.30;26.80;;;9.30;99.90;;;;;;4232334;28;20047;-85
2022/12/07 02:06:25;;;;;;;70.05;27.98;;;9.30;99.90;;;;;;4217036;28;20055;-85
2022/12/07 02:08:46;;;;;;;28.77;23.10;;;9.30;99.90;;;;;;4230368;28;20103;-85
2022/12/07 02:11:07;;;;;;;33.88;25.10;;;9.30;99.90;;;;;;4215238;28;20078;-85
2022/12/07 02:13:32;;;;;;;30.15;23.75;;;9.20;99.90;;;;;;4214366;28;20445;-85
2022/12/07 02:15:58;;;;;;;34.45;27.23;;;9.30;99.90;;;;;;4223324;28;20051;-85
2022/12/07 02:18:41;;;;;;;21.80;18.92;;;9.30;99.90;;;;;;4216752;28;20086;-85
2022/12/07 02:21:30;;;;;;;23.55;21.02;;;9.30;99.90;;;;;;4229841;28;20054;-85
2022/12/07 02:24:18;;;;;;;35.63;24.58;;;9.30;99.90;;;;;;4236180;28;20050;-85
2022/12/07 02:27:16;;;;;;;25.27;19.38;;;9.20;99.90;;;;;;4230897;28;20055;-85
2022/12/07 02:29:56;;;;;;;22.27;20.15;;;9.20;99.90;;;;;;4222848;28;20054;-85
2022/12/07 02:32:38;;;;;;;23.65;18.98;;;9.20;99.90;;;;;;4232469;28;20042;-85
2022/12/07 02:35:04;;;;;;;26.30;19.35;;;9.20;99.90;;;;;;4231115;28;20071;-85
2022/12/07 02:37:33;;;;;;;25.77;19.30;;;9.20;99.90;;;;;;4228679;28;20094;-85
2022/12/07 02:40:02;;;;;;;30.15;20.30;;;9.20;99.90;;;;;;4214803;28;20054;-85
2022/12/07 02:42:30;;;;;;;34.63;24.75;;;9.20;99.90;;;;;;4231308;28;20066;-85
2022/12/07 02:44:51;;;;;;;23.80;17.38;;;9.20;99.90;;;;;;4228963;28;20075;-85
2022/12/07 02:47:15;;;;;;;21.55;17.50;;;9.20;99.90;;;;;;4232676;28;20047;-85
2022/12/07 02:49:38;;;;;;;24.33;17.48;;;9.30;99.90;;;;;;4214905;28;20059;-85
2022/12/07 02:51:57;;;;;;;27.47;17.27;;;9.20;99.90;;;;;;4229500;28;20055;-85
2022/12/07 02:54:19;;;;;;;30.10;19.90;;;9.20;99.90;;;;;;4228125;28;20468;-85
2022/12/07 02:56:54;;;;;;;25.58;18.33;;;9.20;99.90;;;;;;4228146;28;20070;-85
2022/12/07 02:59:42;;;;;;;18.27;15.82;;;9.20;99.90;;;;;;4231236;28;20046;-85
2022/12/07 03:02:20;;;;;;;27.08;18.45;;;9.20;99.90;;;;;;4227271;28;20146;-85
2022/12/07 03:05:00;;;;;;;23.02;17.15;;;9.10;99.90;;;;;;4212293;28;20074;-85
2022/12/07 03:07:32;;;;;;;19.48;16.23;;;9.20;99.90;;;;;;4215892;28;20108;-85
2022/12/07 03:10:17;;;;;;;403.42;41.20;;;9.20;99.90;;;;;;4230961;28;20113;-85
2022/12/07 03:12:53;;;;;;;509.60;45.20;;;9.10;99.90;;;;;;4213000;28;20361;-85
2022/12/07 03:15:27;;;;;;;532.15;44.08;;;9.00;99.90;;;;;;4224926;28;20062;-85
2022/12/07 03:17:47;;;;;;;;;;;9.00;99.90;;;;;;4230629;28;20043;-85
2022/12/07 03:20:11;;;;;;;575.85;40.28;;;8.90;99.90;;;;;;4227410;28;20111;-85
2022/12/07 03:22:34;;;;;;;39.42;19.67;;;8.90;99.90;;;;;;4227855;28;20415;-85
2022/12/07 03:25:15;;;;;;;484.88;39.35;;;8.90;99.90;;;;;;4225538;28;20361;-85
2022/12/07 03:27:44;;;;;;;20.85;18.92;;;8.80;99.90;;;;;;4227151;28;20281;-85
2022/12/07 03:30:19;;;;;;;28.02;21.40;;;8.90;99.90;;;;;;4228829;28;20047;-85
2022/12/07 03:33:01;;;;;;;41.85;28.67;;;8.90;99.90;;;;;;4231035;28;20112;-85
2022/12/07 03:35:44;;;;;;;36.20;25.65;;;9.00;99.90;;;;;;4216837;28;20106;-85
2022/12/07 03:38:17;;;;;;;30.00;19.63;;;9.00;99.90;;;;;;4230380;28;20051;-85
2022/12/07 03:40:57;;;;;;;27.25;19.80;;;9.00;99.90;;;;;;4227321;28;20051;-86
2022/12/07 03:43:19;;;;;;;18.83;16.88;;;9.00;99.90;;;;;;4232032;28;20071;-85
2022/12/07 03:45:42;;;;;;;23.20;15.88;;;9.00;99.90;;;;;;4235706;28;20069;-85
2022/12/07 03:48:07;;;;;;;;;;;9.00;99.90;;;;;;4230657;28;20039;-85
2022/12/07 03:50:38;;;;;;;49.70;21.50;;;9.00;99.90;;;;;;4211943;28;20253;-85
2022/12/07 03:53:22;;;;;;;318.45;40.17;;;9.00;99.90;;;;;;4230018;28;20238;-85
2022/12/07 03:55:45;;;;;;;66.13;27.00;;;9.00;99.90;;;;;;4225060;28;20046;-85
2022/12/07 03:58:10;;;;;;;27.98;22.83;;;8.90;99.90;;;;;;4230372;28;20238;-85
2022/12/07 04:00:31;;;;;;;46.85;23.60;;;9.00;99.90;;;;;;4221930;28;20085;-85
2022/12/07 04:02:55;;;;;;;60.30;24.20;;;9.00;99.90;;;;;;4231147;28;20101;-85
2022/12/07 04:05:16;;;;;;;195.23;30.75;;;8.90;99.90;;;;;;4214563;28;20121;-85
2022/12/07 04:07:36;;;;;;;170.35;29.08;;;8.90;99.90;;;;;;4227035;28;20046;-85
2022/12/07 04:09:56;;;;;;;87.32;25.45;;;8.90;99.90;;;;;;4224946;28;20054;-85
2022/12/07 04:12:16;;;;;;;280.40;33.50;;;8.90;99.90;;;;;;4216714;28;20047;-85
2022/12/07 04:14:36;;;;;;;136.35;27.98;;;8.90;99.90;;;;;;4232842;28;20059;-85
2022/12/07 04:16:58;;;;;;;131.02;31.27;;;8.90;99.90;;;;;;4230568;28;20043;-85
2022/12/07 04:19:21;;;;;;;200.73;29.50;;;8.90;99.90;;;;;;4227573;28;20080;-85
2022/12/07 04:21:40;;;;;;;152.50;22.67;;;8.90;99.90;;;;;;4227727;28;20047;-85
2022/12/07 04:24:00;;;;;;;17.50;15.75;;;8.80;99.90;;;;;;4222045;28;20074;-85
2022/12/07 04:26:20;;;;;;;307.65;32.83;;;8.80;99.90;;;;;;4224981;28;20071;-85
2022/12/07 04:28:40;;;;;;;79.07;18.20;;;8.80;99.90;;;;;;4225307;28;20058;-85
2022/12/07 04:31:01;;;;;;;37.47;17.92;;;8.80;99.90;;;;;;4227957;28;20047;-85
2022/12/07 04:33:20;;;;;;;28.75;17.17;;;8.80;99.90;;;;;;4227722;28;20035;-85
2022/12/07 04:35:42;;;;;;;39.45;19.00;;;8.80;99.90;;;;;;4213885;28;20090;-85
2022/12/07 04:38:02;;;;;;;21.73;19.45;;;8.80;99.90;;;;;;4227713;28;20385;-85
2022/12/07 04:40:22;;;;;;;19.88;17.73;;;8.80;99.90;;;;;;4215652;28;20059;-85
2022/12/07 04:42:42;;;;;;;25.80;19.27;;;8.90;99.90;;;;;;4214488;28;20278;-85
2022/12/07 04:45:02;;;;;;;22.20;20.10;;;9.00;99.90;;;;;;4227047;28;20058;-85
2022/12/07 04:47:22;;;;;;;26.15;20.38;;;9.00;99.90;;;;;;4231990;28;20046;-85
2022/12/07 04:49:41;;;;;;;181.77;27.48;;;8.90;99.90;;;;;;4228963;28;20059;-84
2022/12/07 04:52:01;;;;;;;92.28;23.92;;;8.90;99.90;;;;;;4230520;28;20092;-84
2022/12/07 04:54:21;;;;;;;67.07;20.15;;;8.90;99.90;;;;;;4228424;28;20079;-84
2022/12/07 04:56:41;;;;;;;34.22;19.05;;;8.90;99.90;;;;;;4217029;28;20250;-84
2022/12/07 04:59:02;;;;;;;20.58;18.60;;;8.90;99.90;;;;;;4230317;28;20038;-85
2022/12/07 05:01:23;;;;;;;17.58;16.20;;;8.90;99.90;;;;;;4224622;28;20362;-84
2022/12/07 05:03:43;;;;;;;20.02;18.02;;;8.90;99.90;;;;;;4226055;28;20231;-85
2022/12/07 05:06:04;;;;;;;18.42;16.58;;;8.90;99.90;;;;;;4231428;28;20428;-85
2022/12/07 05:08:29;;;;;;;17.25;15.80;;;8.90;99.90;;;;;;4215871;28;20269;-85
2022/12/07 05:10:50;;;;;;;23.48;18.77;;;8.90;99.90;;;;;;4227713;28;20236;-85
2022/12/07 05:13:10;;;;;;;17.17;15.60;;;8.90;99.90;;;;;;4225634;28;20056;-85
2022/12/07 05:15:29;;;;;;;16.75;11.77;;;9.00;99.90;;;;;;4210528;28;20051;-85
2022/12/07 05:17:49;;;;;;;15.73;14.43;;;9.00;99.90;;;;;;4231329;28;20103;-85
2022/12/07 05:20:09;;;;;;;16.17;14.55;;;9.00;99.90;;;;;;4221951;28;20397;-85
2022/12/07 05:22:29;;;;;;;19.42;16.10;;;9.00;99.90;;;;;;4215769;28;20244;-85
2022/12/07 05:24:49;;;;;;;17.45;15.48;;;9.00;99.90;;;;;;4225398;28;20103;-85
2022/12/07 05:27:09;;;;;;;14.98;13.38;;;8.90;99.90;;;;;;4224148;28;20051;-85
2022/12/07 05:29:29;;;;;;;123.93;19.67;;;8.90;99.90;;;;;;4221502;28;20081;-85
2022/12/07 05:31:49;;;;;;;150.68;21.70;;;8.90;99.90;;;;;;4232769;28;20059;-85
2022/12/07 05:34:09;;;;;;;161.80;20.88;;;8.80;99.90;;;;;;4217972;28;20069;-85
2022/12/07 05:36:31;;;;;;;277.17;24.00;;;8.80;99.90;;;;;;4216115;28;20091;-85
2022/12/07 05:38:51;;;;;;;320.38;26.30;;;8.80;99.90;;;;;;4231995;28;20051;-85
2022/12/07 05:43:53;;;;;;;134.93;18.65;;;8.70;99.90;;;;;;4232961;28;20071;-85
2022/12/07 05:46:13;;;;;;;41.67;15.73;;;8.60;99.90;;;;;;4216510;28;20071;-85
2022/12/07 05:48:33;;;;;;;15.93;14.52;;;8.70;99.90;;;;;;4230020;28;20131;-85
2022/12/07 05:50:53;;;;;;;16.40;14.80;;;8.70;99.90;;;;;;4233761;28;20051;-85
2022/12/07 05:53:13;;;;;;;15.15;13.70;;;8.70;99.90;;;;;;4219691;28;20047;-85
2022/12/07 05:55:39;;;;;;;15.20;13.75;;;8.70;99.90;;;;;;4227565;28;20120;-85
2022/12/07 06:00:36;;;;;;;13.05;11.75;;;8.80;99.90;;;;;;4234493;28;20042;-85
2022/12/07 06:02:56;;;;;;;25.60;13.25;;;8.80;99.90;;;;;;4231556;28;20296;-85
2022/12/07 06:05:16;;;;;;;15.98;12.25;;;8.80;99.90;;;;;;4217871;28;20051;-85
2022/12/07 06:07:36;;;;;;;15.52;13.55;;;8.80;99.90;;;;;;4226166;28;20050;-85
2022/12/07 06:09:56;;;;;;;15.95;10.45;;;8.80;99.90;;;;;;4223419;28;20481;-86
2022/12/07 06:12:34;;;;;;;18.48;11.18;;;8.90;99.90;;;;;;4216155;28;20048;-85
2022/12/07 06:14:55;;;;;;;20.60;12.02;;;9.00;99.90;;;;;;4233201;28;20089;-85
2022/12/07 06:17:15;;;;;;;14.68;11.90;;;9.00;99.90;;;;;;4220937;28;20082;-85
2022/12/07 06:19:35;;;;;;;16.38;12.20;;;9.00;99.90;;;;;;4232456;28;20251;-85
2022/12/07 06:21:56;;;;;;;13.40;11.90;;;9.00;99.90;;;;;;4232254;28;20423;-86
2022/12/07 06:24:17;;;;;;;16.50;12.73;;;8.90;99.90;;;;;;4220132;28;20235;-86
2022/12/07 06:26:38;;;;;;;21.70;13.63;;;9.00;99.90;;;;;;4222923;28;20082;-86
2022/12/07 06:28:58;;;;;;;16.50;14.85;;;9.00;99.90;;;;;;4231154;28;20086;-86
2022/12/07 06:31:18;;;;;;;29.13;17.40;;;9.00;99.90;;;;;;4227484;28;20050;-86
2022/12/07 06:33:38;;;;;;;20.70;16.67;;;9.00;99.90;;;;;;4232129;28;20078;-86
2022/12/07 06:35:59;;;;;;;24.27;17.45;;;9.00;99.90;;;;;;4215874;28;20055;-86
2022/12/07 06:38:19;;;;;;;21.15;17.17;;;9.00;99.90;;;;;;4228225;28;20043;-87
2022/12/07 06:40:40;;;;;;;19.67;17.45;;;9.10;99.90;;;;;;4234096;28;20058;-86
2022/12/07 06:43:00;;;;;;;28.33;20.95;;;9.10;99.90;;;;;;4230225;28;20066;-86
2022/12/07 06:45:20;;;;;;;20.90;15.10;;;9.10;99.90;;;;;;4216335;28;20042;-86
2022/12/07 06:47:40;;;;;;;21.17;18.05;;;9.10;99.90;;;;;;4229186;28;20116;-87
2022/12/07 06:50:03;;;;;;;67.38;28.67;;;9.10;99.90;;;;;;4216023;28;20070;-83
2022/12/07 06:52:24;;;;;;;79.53;22.67;;;9.10;99.90;;;;;;4232445;28;20510;-83
2022/12/07 06:54:44;;;;;;;319.08;34.85;;;9.00;99.90;;;;;;4217552;28;20197;-84
2022/12/07 06:57:04;;;;;;;366.13;37.17;;;9.00;99.90;;;;;;4231101;28;20086;-84
2022/12/07 06:59:24;;;;;;;348.73;36.83;;;8.90;99.90;;;;;;4235023;28;20061;-84
2022/12/07 07:01:44;;;;;;;168.90;29.17;;;8.90;99.90;;;;;;4227672;28;20046;-83
2022/12/07 07:04:04;;;;;;;121.70;32.80;;;8.90;99.90;;;;;;4233714;28;20105;-83
2022/12/07 07:06:24;;;;;;;72.93;43.47;;;8.90;99.90;;;;;;4232965;28;20051;-84
2022/12/07 07:08:44;;;;;;;56.72;38.83;;;9.00;99.90;;;;;;4212923;28;20398;-83
2022/12/07 07:11:05;;;;;;;65.88;41.70;;;9.00;99.90;;;;;;4231903;28;20172;-84
2022/12/07 07:13:25;;;;;;;41.20;32.80;;;9.00;99.90;;;;;;4226193;28;20397;-84
2022/12/07 07:15:46;;;;;;;43.97;34.55;;;9.00;99.90;;;;;;4214273;28;20118;-84
2022/12/07 07:18:06;;;;;;;50.13;32.22;;;9.00;99.90;;;;;;4230013;28;20078;-84
2022/12/07 07:20:27;;;;;;;45.53;33.15;;;9.10;99.90;;;;;;4229184;28;20081;-83
2022/12/07 07:22:48;;;;;;;43.75;31.02;;;9.00;99.90;;;;;;4229991;28;20104;-84
2022/12/07 07:25:07;;;;;;;47.38;31.65;;;9.10;99.90;;;;;;4214414;28;20294;-84
2022/12/07 07:27:27;;;;;;;38.38;25.98;;;9.10;99.90;;;;;;4227911;28;20399;-84
2022/12/07 07:29:47;;;;;;;42.83;30.08;;;9.10;99.90;;;;;;4232349;28;20046;-84
2022/12/07 07:32:07;;;;;;;29.63;24.35;;;9.10;99.90;;;;;;4226252;28;20054;-84
2022/12/07 07:34:27;;;;;;;30.27;23.20;;;9.20;99.90;;;;;;4219261;28;20062;-83
2022/12/07 07:36:47;;;;;;;34.42;25.90;;;9.20;99.90;;;;;;4219226;28;20231;-83
2022/12/07 07:39:06;;;;;;;44.38;33.17;;;9.20;99.90;;;;;;4218653;28;20075;-84
2022/12/07 07:41:26;;;;;;;96.38;42.35;;;9.20;99.90;;;;;;4226959;28;20081;-84
2022/12/07 07:43:46;;;;;;;78.18;30.98;;;9.20;99.90;;;;;;4227528;28;20239;-84
2022/12/07 07:46:06;;;;;;;31.40;27.55;;;9.20;99.90;;;;;;4232251;28;20051;-84
2022/12/07 07:48:26;;;;;;;29.65;23.73;;;9.20;99.90;;;;;;4228784;28;20039;-84
2022/12/07 07:50:46;;;;;;;29.15;24.02;;;9.20;99.90;;;;;;4228446;28;20067;-83
2022/12/07 07:53:05;;;;;;;27.50;23.38;;;9.20;99.90;;;;;;4224294;28;20100;-84
2022/12/07 07:55:25;;;;;;;27.00;22.50;;;9.20;99.90;;;;;;4228026;28;20046;-84
2022/12/07 07:57:45;;;;;;;22.48;19.02;;;9.20;99.90;;;;;;4233492;28;20362;-84
2022/12/07 08:00:15;;;;;;;26.63;20.38;;;9.20;99.90;;;;;;4222052;28;20047;-84
2022/12/07 08:02:35;;;;;;;22.35;18.10;;;9.30;99.90;;;;;;4216337;28;20150;-84
2022/12/07 08:04:54;;;;;;;25.77;22.05;;;9.30;99.90;;;;;;4218717;28;20059;-84
2022/12/07 08:07:15;;;;;;;32.55;24.73;;;9.30;99.90;;;;;;4221730;28;20066;-84
2022/12/07 08:09:35;;;;;;;35.83;31.88;;;9.30;99.90;;;;;;4215498;28;20060;-84
2022/12/07 08:11:55;;;;;;;36.08;31.75;;;9.40;99.90;;;;;;4233233;28;20054;-84
2022/12/07 08:14:14;;;;;;;23.55;20.83;;;9.40;99.90;;;;;;4231923;28;20058;-83
2022/12/07 08:16:35;;;;;;;28.90;23.48;;;9.40;99.90;;;;;;4223512;28;20408;-83
2022/12/07 08:18:54;;;;;;;54.58;47.97;;;9.40;99.90;;;;;;4216969;28;20055;-83
2022/12/07 08:21:15;;;;;;;29.35;26.55;;;9.40;99.90;;;;;;4218799;28;20089;-84
2022/12/07 08:23:35;;;;;;;24.52;19.98;;;9.40;99.90;;;;;;4230246;28;20051;-84
2022/12/07 08:26:04;;;;;;;21.65;19.60;;;9.40;99.90;;;;;;4218836;28;20050;-83
2022/12/07 08:28:24;;;;;;;71.88;48.78;;;9.40;99.90;;;;;;4220612;28;20043;-83
2022/12/07 08:30:44;;;;;;;49.90;36.13;;;9.50;99.90;;;;;;4217411;28;20055;-84
2022/12/07 08:33:04;;;;;;;53.15;40.55;;;9.50;99.90;;;;;;4228713;28;20231;-84
2022/12/07 08:35:25;;;;;;;45.33;37.03;;;9.60;99.90;;;;;;4219693;28;20051;-83
2022/12/07 08:37:45;;;;;;;40.20;33.88;;;9.60;99.90;;;;;;4228568;28;20081;-83
2022/12/07 08:40:07;;;;;;;29.02;25.73;;;9.60;99.90;;;;;;4228171;28;20051;-84
2022/12/07 08:42:29;;;;;;;22.90;20.60;;;9.60;99.90;;;;;;4229524;28;20062;-83
2022/12/07 08:44:49;;;;;;;27.48;21.00;;;9.60;99.90;;;;;;4230804;28;20050;-84
2022/12/07 08:47:10;;;;;;;29.83;23.85;;;9.60;99.90;;;;;;4227258;28;20077;-84
2022/12/07 08:49:42;;;;;;;27.45;21.98;;;9.60;99.90;;;;;;4220885;28;20047;-84
2022/12/07 08:52:05;;;;;;;28.38;24.52;;;9.70;99.90;;;;;;4209981;28;20090;-84
2022/12/07 08:54:24;;;;;;;25.88;19.00;;;9.70;99.90;;;;;;4212217;28;20050;-84
2022/12/07 08:56:47;;;;;;;20.85;19.02;;;9.70;99.90;;;;;;4222585;28;20055;-84
2022/12/07 08:59:07;;;;;;;35.37;26.00;;;9.80;99.90;;;;;;4226510;28;20070;-83
2022/12/07 09:01:27;;;;;;;31.02;24.48;;;9.80;99.90;;;;;;4214554;28;20086;-84
2022/12/07 09:03:47;;;;;;;36.35;27.63;;;9.70;99.90;;;;;;4228705;28;20051;-84
2022/12/07 09:06:08;;;;;;;40.53;30.10;;;9.80;99.90;;;;;;4233354;28;20111;-84
2022/12/07 09:08:45;;;;;;;36.60;28.70;;;9.80;99.90;;;;;;4232472;28;20112;-83
2022/12/07 09:11:05;;;;;;;35.90;27.73;;;9.80;99.90;;;;;;4218040;28;20078;-84
2022/12/07 09:13:25;;;;;;;35.05;29.67;;;9.90;99.90;;;;;;4230939;28;20043;-84
2022/12/07 09:15:44;;;;;;;35.47;28.17;;;9.90;99.90;;;;;;4224555;28;20078;-84
2022/12/07 09:18:05;;;;;;;30.65;25.80;;;10.00;99.90;;;;;;4233247;28;20046;-84
2022/12/07 09:20:25;;;;;;;32.28;27.23;;;10.00;99.90;;;;;;4214905;28;20079;-84
2022/12/07 09:22:48;;;;;;;35.22;29.48;;;10.00;99.90;;;;;;4230199;28;20039;-84
2022/12/07 09:25:08;;;;;;;33.42;27.88;;;10.00;99.90;;;;;;4218001;28;20120;-84
2022/12/07 09:27:28;;;;;;;30.77;26.17;;;10.00;99.90;;;;;;4233052;28;20050;-84
2022/12/07 09:29:48;;;;;;;34.10;29.25;;;10.00;99.90;;;;;;4228941;28;20050;-84
2022/12/07 09:32:07;;;;;;;35.47;26.38;;;10.00;99.90;;;;;;4216637;28;20055;-84
2022/12/07 09:34:32;;;;;;;33.83;26.88;;;10.10;99.90;;;;;;4230478;28;20365;-84
2022/12/07 09:36:51;;;;;;;32.45;24.70;;;10.10;99.90;;;;;;4228206;28;20090;-84
2022/12/07 09:39:11;;;;;;;27.75;24.25;;;10.10;99.90;;;;;;4218104;28;20091;-84
2022/12/07 09:41:32;;;;;;;34.35;26.00;;;10.20;99.90;;;;;;4231525;28;20041;-84
2022/12/07 09:43:57;;;;;;;30.10;24.15;;;10.20;99.90;;;;;;4232322;28;20133;-84
2022/12/07 09:46:20;;;;;;;31.67;23.40;;;10.40;99.90;;;;;;4233496;28;20074;-84
2022/12/07 09:48:42;;;;;;;31.25;24.63;;;10.50;99.90;;;;;;4229204;28;20078;-84
2022/12/07 09:51:09;;;;;;;30.70;25.17;;;10.50;99.90;;;;;;4228413;28;20047;-84
2022/12/07 09:53:37;;;;;;;24.35;22.02;;;10.50;99.90;;;;;;4226673;28;20059;-84
2022/12/07 09:55:58;;;;;;;20.48;18.42;;;10.50;99.90;;;;;;4219896;28;20071;-84
2022/12/07 09:58:23;;;;;;;26.92;20.27;;;10.50;99.90;;;;;;4230403;28;20111;-84
2022/12/07 10:00:43;;;;;;;25.88;23.30;;;10.50;99.90;;;;;;4231095;28;20082;-84
2022/12/07 10:03:03;;;;;;;27.25;24.33;;;10.60;99.90;;;;;;4221184;28;20067;-84
2022/12/07 10:05:26;;;;;;;31.67;24.52;;;10.70;99.90;;;;;;4220636;28;20122;-84
2022/12/07 10:07:46;;;;;;;32.58;23.73;;;10.70;99.90;;;;;;4229989;28;20418;-84
2022/12/07 10:10:14;;;;;;;27.42;21.88;;;10.70;99.90;;;;;;4222811;28;20066;-84
2022/12/07 10:12:57;;;;;;;22.38;20.05;;;10.80;99.90;;;;;;4230881;28;20097;-84
2022/12/07 10:15:17;;;;;;;23.02;20.70;;;10.70;99.90;;;;;;4227438;28;20051;-84
2022/12/07 10:17:40;;;;;;;24.10;21.60;;;10.80;99.90;;;;;;4229880;28;20059;-84
2022/12/07 10:20:26;;;;;;;35.08;24.92;;;10.80;99.90;;;;;;4227471;28;20043;-84
2022/12/07 10:23:05;;;;;;;22.63;20.48;;;10.80;99.90;;;;;;4230863;28;20074;-84
2022/12/07 10:25:28;;;;;;;16.25;13.00;;;10.80;99.90;;;;;;4231196;28;20054;-84
2022/12/07 10:28:01;;;;;;;;;;;10.80;99.90;;;;;;4227163;28;20085;-84
2022/12/07 10:30:21;;;;;;;11.25;9.52;;;10.90;99.90;;;;;;4230967;28;19958;-84
2022/12/07 10:32:41;;;;;;;19.23;11.20;;;10.90;99.90;;;;;;4229539;28;20134;-85
2022/12/07 10:35:29;;;;;;;13.35;8.60;;;11.00;99.90;;;;;;4217433;28;20311;-84
2022/12/07 10:37:49;;;;;;;10.90;9.68;;;11.00;99.90;;;;;;4220341;28;20047;-84
2022/12/07 10:40:34;;;;;;;8.45;7.32;;;10.90;99.90;;;;;;4227563;28;20043;-84
2022/12/07 10:43:17;;;;;;;17.08;9.02;;;10.70;99.90;;;;;;4233936;28;20061;-84
2022/12/07 10:46:15;;;;;;;18.30;8.80;;;10.90;99.90;;;;;;4228317;28;20130;-84
2022/12/07 10:49:01;;;;;;;18.20;10.18;;;11.10;99.90;;;;;;4213585;28;20055;-84
2022/12/07 10:51:38;;;;;;;13.55;10.43;;;11.10;99.90;;;;;;4231452;28;20100;-84
2022/12/07 10:54:20;;;;;;;13.23;10.82;;;11.10;99.90;;;;;;4236423;28;20043;-84
2022/12/07 10:57:19;;;;;;;21.27;14.40;;;11.10;99.90;;;;;;4223902;28;20069;-84
2022/12/07 10:59:57;;;;;;;15.75;14.07;;;11.50;99.90;;;;;;4226536;28;20231;-84
2022/12/07 11:02:24;;;;;;;11.13;7.65;;;11.90;99.90;;;;;;4232955;28;20152;-85
2022/12/07 11:05:14;;;;;;;14.70;9.02;;;11.80;99.90;;;;;;4215990;28;20459;-85
2022/12/07 11:08:02;;;;;;;10.60;8.88;;;11.70;99.90;;;;;;4223444;28;20043;-85
2022/12/07 11:11:05;;;;;;;8.25;7.00;;;11.50;99.90;;;;;;4222611;28;20149;-85
2022/12/07 11:13:28;;;;;;;16.90;11.13;;;11.50;99.90;;;;;;4205033;28;20051;-85
2022/12/07 11:16:07;;;;;;;12.68;10.30;;;11.50;99.90;;;;;;4228314;28;20047;-85
2022/12/07 11:18:37;;;;;;;10.57;9.52;;;11.50;99.90;;;;;;4221841;28;20047;-85
2022/12/07 11:21:20;;;;;;;12.13;10.20;;;11.60;99.90;;;;;;4232811;28;20059;-85
2022/12/07 11:24:24;;;;;;;13.27;12.18;;;11.60;99.90;;;;;;4230347;28;20088;-85
2022/12/07 11:27:21;;;;;;;16.20;11.05;;;11.70;99.90;;;;;;4231097;28;20073;-85
2022/12/07 11:29:50;;;;;;;19.38;12.05;;;11.60;99.90;;;;;;4228677;28;20142;-85
2022/12/07 11:32:29;;;;;;;15.55;10.65;;;11.50;99.90;;;;;;4230195;28;20051;-85
2022/12/07 11:35:25;;;;;;;12.18;8.75;;;11.40;99.90;;;;;;4225735;28;20277;-85
2022/12/07 11:37:46;;;;;;;10.77;9.85;;;11.40;99.90;;;;;;4221276;28;20074;-85
2022/12/07 11:40:35;;;;;;;14.20;8.38;;;11.50;99.90;;;;;;4231414;28;20084;-84
2022/12/07 11:43:16;;;;;;;18.15;8.20;;;11.50;99.90;;;;;;4231822;28;20093;-85
2022/12/07 11:45:41;;;;;;;16.33;8.10;;;11.40;99.90;;;;;;4232566;28;20311;-85
2022/12/07 11:48:09;;;;;;;12.40;8.02;;;11.40;99.90;;;;;;4215004;28;20127;-85
2022/12/07 11:50:50;;;;;;;10.65;8.98;;;11.70;99.90;;;;;;4216853;28;20055;-85
2022/12/07 11:53:38;;;;;;;8.60;7.38;;;11.80;99.90;;;;;;4226923;28;20047;-86
2022/12/07 11:56:10;;;;;;;9.60;8.70;;;12.00;99.90;;;;;;4230144;28;20081;-85
2022/12/07 11:58:33;;;;;;;14.70;9.65;;;12.00;99.90;;;;;;4213800;28;20159;-85
2022/12/07 12:01:06;;;;;;;15.75;10.18;;;11.80;99.90;;;;;;4230925;28;20085;-85
2022/12/07 12:03:33;;;;;;;12.15;9.05;;;11.70;99.90;;;;;;4217683;28;20090;-85
2022/12/07 12:05:54;;;;;;;15.18;8.80;;;11.50;99.90;;;;;;4231417;28;20073;-85
2022/12/07 12:08:19;;;;;;;10.82;7.90;;;11.50;99.90;;;;;;4229545;28;20069;-85
2022/12/07 12:10:59;;;;;;;9.70;8.40;;;11.50;99.90;;;;;;4214640;28;20058;-85
2022/12/07 12:13:39;;;;;;;12.10;8.73;;;11.80;99.90;;;;;;4231271;28;20038;-85
2022/12/07 12:16:22;;;;;;;6.95;5.55;;;11.90;99.90;;;;;;4227633;28;20046;-85
2022/12/07 12:19:06;;;;;;;11.77;7.82;;;11.90;99.90;;;;;;4215419;28;20127;-85
2022/12/07 12:21:29;;;;;;;9.93;8.85;;;12.10;99.90;;;;;;4217123;28;20055;-85
2022/12/07 12:24:00;;;;;;;10.95;7.80;;;12.10;99.90;;;;;;4215575;28;20047;-85
2022/12/07 12:26:28;;;;;;;8.70;7.35;;;12.30;99.90;;;;;;4227121;28;20043;-85
2022/12/07 12:28:58;;;;;;;15.43;7.85;;;12.30;99.90;;;;;;4231631;28;20101;-85
2022/12/07 12:31:21;;;;;;;15.02;9.10;;;12.30;99.90;;;;;;4228031;28;20059;-85